Terminal Aerodrome Forecast
Issued by NWS Sterling, VA

Current Version | Previous Version | Text Only | Print | Product List | Glossary Off
Versions: 1 2 3 4 5 6 7 8 9 10 11 12 13 14 15 16 17 18 19 20 21 22 23 24 25 26 27 28 29

792
FTUS41 KLWX 282109 AAA
TAFIAD
TAF AMD
KIAD 282109Z 2821/2924 25006KT P6SM SCT030 BKN060
     FM282200 27005KT P6SM BKN040
     FM290100 33006KT P6SM BKN030
     FM290600 35008KT P6SM OVC008
     FM291200 35008KT P6SM BKN050
     FM291500 35011KT P6SM SCT250
     FM292300 36007KT P6SM SCT250=

USA.gov is the U.S. government's official web portal to all federal, state and local government web resources and services.